createdAt,value
2023-02-11T00:01:49.241Z,23.20
2023-02-11T00:04:17.537Z,23.13
2023-02-11T00:06:45.938Z,22.25
2023-02-11T00:09:14.207Z,23.35
2023-02-11T00:11:42.504Z,22.50
2023-02-11T00:14:12.268Z,32.83
2023-02-11T00:16:41.973Z,23.75
2023-02-11T00:19:11.078Z,24.45
2023-02-11T00:21:39.359Z,23.05
2023-02-11T00:24:07.955Z,23.08
2023-02-11T00:26:37.266Z,23.30
2023-02-11T00:29:06.157Z,23.70
2023-02-11T00:31:34.633Z,21.88
2023-02-11T00:34:04.458Z,22.38
2023-02-11T00:36:32.797Z,27.98
2023-02-11T00:39:01.184Z,22.52
2023-02-11T00:41:30.052Z,22.90
2023-02-11T00:44:00.851Z,22.10
2023-02-11T00:46:29.203Z,22.48
2023-02-11T00:48:57.945Z,22.60
2023-02-11T00:51:28.156Z,22.00
2023-02-11T00:53:56.516Z,21.85
2023-02-11T00:56:24.810Z,22.38
2023-02-11T00:58:53.917Z,23.15
2023-02-11T01:01:22.263Z,25.83
2023-02-11T01:03:50.575Z,23.40
2023-02-11T01:06:19.016Z,23.73
2023-02-11T01:08:48.664Z,22.65
2023-02-11T01:11:18.294Z,21.73
2023-02-11T01:13:47.388Z,22.95
2023-02-11T01:16:17.522Z,22.35
2023-02-11T01:18:47.400Z,22.55
2023-02-11T01:21:16.135Z,22.70
2023-02-11T01:23:44.727Z,20.48
2023-02-11T01:26:14.932Z,21.40
2023-02-11T01:28:43.340Z,25.30
2023-02-11T01:31:11.821Z,22.02
2023-02-11T01:33:40.591Z,21.13
2023-02-11T01:36:09.349Z,22.70
2023-02-11T01:38:38.885Z,23.30
2023-02-11T01:41:08.387Z,22.42
2023-02-11T01:43:39.096Z,25.08
2023-02-11T01:46:25.089Z,22.58
2023-02-11T01:48:54.878Z,22.67
2023-02-11T01:51:25.627Z,22.63
2023-02-11T01:54:11.913Z,21.83
2023-02-11T01:57:01.530Z,22.75
2023-02-11T01:59:33.248Z,21.15
2023-02-11T02:02:04.436Z,21.75
2023-02-11T02:04:34.827Z,22.02
2023-02-11T02:07:05.551Z,21.52
2023-02-11T02:09:38.132Z,21.33
2023-02-11T02:12:06.589Z,21.23
2023-02-11T02:14:39.291Z,21.73
2023-02-11T02:17:26.184Z,21.65
2023-02-11T02:20:08.605Z,20.70
2023-02-11T02:22:52.628Z,21.27
2023-02-11T02:25:37.916Z,20.77
2023-02-11T02:28:13.473Z,21.35
2023-02-11T02:30:53.628Z,20.73
2023-02-11T02:33:35.188Z,21.77
2023-02-11T02:36:07.616Z,20.52
2023-02-11T02:38:38.219Z,21.77
2023-02-11T02:41:08.829Z,21.73
2023-02-11T02:43:38.395Z,21.27
2023-02-11T02:46:13.714Z,21.23
2023-02-11T02:48:43.400Z,21.58
2023-02-11T02:51:22.103Z,21.10
2023-02-11T02:53:55.115Z,22.15
2023-02-11T02:56:26.416Z,21.77
2023-02-11T02:59:18.645Z,22.02
2023-02-11T03:01:52.669Z,19.88
2023-02-11T03:04:26.925Z,21.08
2023-02-11T03:06:57.450Z,21.08
2023-02-11T03:09:27.813Z,22.55
2023-02-11T03:11:56.229Z,21.65
2023-02-11T03:14:26.686Z,21.90
2023-02-11T03:16:56.391Z,21.83
2023-02-11T03:19:28.169Z,21.63
2023-02-11T03:21:57.300Z,22.98
2023-02-11T03:24:28.767Z,21.17
2023-02-11T03:26:59.481Z,19.92
2023-02-11T03:29:32.995Z,21.70
2023-02-11T03:32:04.183Z,21.17
2023-02-11T03:34:37.408Z,20.92
2023-02-11T03:37:07.923Z,20.15
2023-02-11T03:39:38.270Z,21.52
2023-02-11T03:42:07.538Z,20.73
2023-02-11T03:44:37.769Z,20.02
2023-02-11T03:47:08.933Z,20.08
2023-02-11T03:49:39.929Z,21.20
2023-02-11T03:52:11.168Z,20.25
2023-02-11T03:54:42.477Z,20.35
2023-02-11T03:57:10.900Z,20.35
2023-02-11T03:59:51.891Z,19.67
2023-02-11T04:02:20.383Z,20.10
2023-02-11T04:04:50.078Z,20.23
2023-02-11T04:07:18.319Z,19.58
2023-02-11T04:09:46.613Z,19.42
2023-02-11T04:12:14.900Z,20.02
2023-02-11T04:14:43.215Z,20.10
2023-02-11T04:17:11.965Z,19.63
2023-02-11T04:19:40.540Z,19.80
2023-02-11T04:22:10.170Z,19.02
2023-02-11T04:24:38.578Z,19.27
2023-02-11T04:27:06.815Z,19.17
2023-02-11T04:29:35.122Z,18.80
2023-02-11T04:32:03.513Z,19.48
2023-02-11T04:34:31.922Z,19.60
2023-02-11T04:37:00.249Z,18.80
2023-02-11T04:39:29.880Z,19.83
2023-02-11T04:41:58.175Z,18.75
2023-02-11T04:44:26.508Z,18.92
2023-02-11T04:46:54.842Z,19.52
2023-02-11T04:49:23.190Z,19.55
2023-02-11T04:51:51.496Z,19.77
2023-02-11T04:54:19.914Z,17.77
2023-02-11T04:56:50.990Z,18.70
2023-02-11T04:59:19.293Z,17.63
2023-02-11T05:01:47.608Z,17.83
2023-02-11T05:04:15.951Z,19.20
2023-02-11T05:06:44.282Z,17.85
2023-02-11T05:09:12.640Z,18.48
2023-02-11T05:11:40.958Z,19.27
2023-02-11T05:14:10.550Z,18.80
2023-02-11T05:16:38.859Z,18.52
2023-02-11T05:19:07.128Z,18.67
2023-02-11T05:21:35.408Z,17.85
2023-02-11T05:24:03.662Z,18.73
2023-02-11T05:26:32.032Z,18.60
2023-02-11T05:29:00.371Z,18.63
2023-02-11T05:31:30.096Z,17.17
2023-02-11T05:33:58.392Z,18.05
2023-02-11T05:36:26.646Z,18.67
2023-02-11T05:38:54.947Z,17.85
2023-02-11T05:41:23.200Z,17.70
2023-02-11T05:43:52.323Z,17.95
2023-02-11T05:46:20.804Z,18.88
2023-02-11T05:48:50.436Z,18.00
2023-02-11T05:51:18.714Z,18.17
2023-02-11T05:53:47.007Z,17.13
2023-02-11T05:56:15.488Z,17.80
2023-02-11T05:58:43.700Z,17.60
2023-02-11T06:01:11.967Z,17.17
2023-02-11T06:03:40.346Z,17.52
2023-02-11T06:06:12.428Z,17.58
2023-02-11T06:08:41.027Z,18.63
2023-02-11T06:11:09.279Z,17.67
2023-02-11T06:13:37.677Z,18.00
2023-02-11T06:16:06.292Z,17.95
2023-02-11T06:18:34.664Z,17.13
2023-02-11T06:21:03.298Z,19.00
2023-02-11T06:23:32.981Z,18.00
2023-02-11T06:26:03.213Z,18.02
2023-02-11T06:28:32.289Z,17.67
2023-02-11T06:31:00.992Z,17.83
2023-02-11T06:33:29.377Z,16.95
2023-02-11T06:35:57.711Z,18.15
2023-02-11T06:38:25.932Z,18.48
2023-02-11T06:40:55.554Z,17.73
2023-02-11T06:43:23.825Z,18.70
2023-02-11T06:45:54.457Z,16.88
2023-02-11T06:48:22.916Z,17.80
2023-02-11T06:50:51.187Z,17.88
2023-02-11T06:53:19.422Z,17.17
2023-02-11T06:55:47.745Z,18.50
2023-02-11T06:58:17.496Z,17.92
2023-02-11T07:00:46.005Z,18.50
2023-02-11T07:03:14.418Z,16.88
2023-02-11T07:05:44.095Z,18.20
2023-02-11T07:08:12.411Z,15.95
2023-02-11T07:10:40.700Z,16.95
2023-02-11T07:13:09.007Z,16.98
2023-02-11T07:15:39.530Z,16.75
2023-02-11T07:18:07.825Z,16.75
2023-02-11T07:20:36.092Z,16.73
2023-02-11T07:23:04.336Z,16.40
2023-02-11T07:25:32.621Z,16.42
2023-02-11T07:28:00.982Z,15.30
2023-02-11T07:30:29.344Z,16.70
2023-02-11T07:32:59.488Z,16.25
2023-02-11T07:35:27.830Z,14.60
2023-02-11T07:37:56.114Z,16.27
2023-02-11T07:40:24.366Z,16.13
2023-02-11T07:42:52.608Z,16.67
2023-02-11T07:45:20.928Z,17.50
2023-02-11T07:47:49.217Z,17.35
2023-02-11T07:50:19.816Z,16.08
2023-02-11T07:52:48.205Z,17.75
2023-02-11T07:55:16.629Z,17.83
2023-02-11T07:57:45.393Z,16.45
2023-02-11T08:00:14.357Z,16.95
2023-02-11T08:02:42.653Z,16.73
2023-02-11T08:05:11.104Z,16.15
2023-02-11T08:07:40.661Z,15.60
2023-02-11T08:10:09.237Z,17.05
2023-02-11T08:12:37.504Z,15.93
2023-02-11T08:15:05.998Z,15.63
2023-02-11T08:17:36.361Z,16.90
2023-02-11T08:20:05.089Z,16.63
2023-02-11T08:22:33.643Z,16.95
2023-02-11T08:25:03.481Z,15.15
2023-02-11T08:27:31.860Z,16.50
2023-02-11T08:30:00.307Z,15.90
2023-02-11T08:35:21.443Z,16.27
2023-02-11T08:37:49.701Z,17.20
2023-02-11T08:40:19.742Z,16.85
2023-02-11T08:42:48.127Z,16.23
2023-02-11T08:45:16.469Z,18.65
2023-02-11T08:47:44.753Z,16.58
2023-02-11T08:50:13.082Z,17.33
2023-02-11T08:52:41.707Z,15.95
2023-02-11T08:55:10.028Z,16.33
2023-02-11T08:57:39.677Z,16.85
2023-02-11T09:00:08.658Z,17.27
2023-02-11T09:02:37.175Z,16.10
2023-02-11T09:05:05.618Z,15.98
2023-02-11T09:07:33.879Z,16.65
2023-02-11T09:10:02.375Z,17.45
2023-02-11T09:12:30.962Z,16.77
2023-02-11T09:15:00.642Z,16.27
2023-02-11T09:17:28.901Z,16.98
2023-02-11T09:19:57.168Z,17.30
2023-02-11T09:22:25.428Z,16.27
2023-02-11T09:24:53.655Z,17.77
2023-02-11T09:27:21.958Z,22.70
2023-02-11T09:29:50.224Z,19.08
2023-02-11T09:32:19.862Z,18.98
2023-02-11T09:34:48.182Z,20.60
2023-02-11T09:37:16.511Z,19.33
2023-02-11T09:39:46.148Z,17.30
2023-02-11T09:42:27.153Z,19.15
2023-02-11T09:44:55.877Z,18.23
2023-02-11T09:47:28.590Z,18.50
2023-02-11T09:50:00.597Z,17.55
2023-02-11T09:52:34.152Z,18.48
2023-02-11T09:55:05.946Z,18.33
2023-02-11T09:57:35.089Z,18.10
2023-02-11T10:00:04.214Z,18.23
2023-02-11T10:02:48.772Z,33.75
2023-02-11T10:05:27.246Z,22.17
2023-02-11T10:07:58.678Z,19.38
2023-02-11T10:10:36.673Z,19.85
2023-02-11T10:13:14.453Z,17.35
2023-02-11T10:15:44.872Z,17.70
2023-02-11T10:18:19.818Z,18.33
2023-02-11T10:20:50.807Z,17.85
2023-02-11T10:23:22.687Z,16.75
2023-02-11T10:25:54.343Z,18.27
2023-02-11T10:28:24.774Z,18.52
2023-02-11T10:30:58.126Z,18.50
2023-02-11T10:33:29.766Z,18.52
2023-02-11T10:35:58.088Z,17.20
2023-02-11T10:38:26.600Z,17.60
2023-02-11T10:40:54.936Z,17.13
2023-02-11T10:43:26.208Z,17.98
2023-02-11T10:45:55.292Z,18.52
2023-02-11T10:48:42.377Z,18.42
2023-02-11T10:51:17.141Z,18.45
2023-02-11T10:53:45.529Z,18.08
2023-02-11T10:56:15.860Z,16.77
2023-02-11T10:58:46.757Z,19.00
2023-02-11T11:01:24.381Z,18.65
2023-02-11T11:03:54.610Z,18.50
2023-02-11T11:06:30.797Z,17.98
2023-02-11T11:08:59.357Z,19.00
2023-02-11T11:11:27.932Z,18.60
2023-02-11T11:13:58.102Z,16.85
2023-02-11T11:16:27.511Z,18.17
2023-02-11T11:19:14.822Z,17.77
2023-02-11T11:21:43.859Z,17.92
2023-02-11T11:24:18.225Z,17.33
2023-02-11T11:26:47.709Z,18.10
2023-02-11T11:29:17.894Z,17.55
2023-02-11T11:31:50.983Z,17.17
2023-02-11T11:34:24.795Z,20.48
2023-02-11T11:36:53.224Z,18.67
2023-02-11T11:39:23.957Z,17.02
2023-02-11T11:41:53.301Z,17.67
2023-02-11T11:44:25.295Z,17.75
2023-02-11T11:46:56.613Z,17.17
2023-02-11T11:49:27.656Z,17.63
2023-02-11T11:51:58.426Z,17.10
2023-02-11T11:54:27.280Z,16.95
2023-02-11T11:56:58.945Z,16.52
2023-02-11T11:59:27.398Z,18.83
2023-02-11T12:02:08.999Z,17.30
2023-02-11T12:05:01.363Z,17.65
2023-02-11T12:07:46.432Z,17.55
2023-02-11T12:10:32.023Z,17.10
2023-02-11T12:13:06.888Z,17.02
2023-02-11T12:15:43.534Z,17.58
2023-02-11T12:18:22.400Z,17.48
2023-02-11T12:21:01.036Z,17.17
2023-02-11T12:23:38.539Z,18.20
2023-02-11T12:26:10.428Z,17.15
2023-02-11T12:28:41.948Z,17.30
2023-02-11T12:31:17.376Z,17.20
2023-02-11T12:33:52.098Z,17.85
2023-02-11T12:36:29.046Z,17.58
2023-02-11T12:39:04.067Z,17.90
2023-02-11T12:41:59.636Z,18.25
2023-02-11T12:44:35.417Z,18.25
2023-02-11T12:47:09.989Z,18.00
2023-02-11T12:49:47.246Z,17.65
2023-02-11T12:52:24.421Z,17.15
2023-02-11T12:54:58.001Z,17.02
2023-02-11T12:57:27.458Z,17.25
2023-02-11T12:59:59.537Z,15.93
2023-02-11T13:02:40.296Z,16.27
2023-02-11T13:05:14.507Z,16.55
2023-02-11T13:07:44.755Z,17.27
2023-02-11T13:10:24.148Z,17.83
2023-02-11T13:13:11.129Z,15.45
2023-02-11T13:15:39.512Z,15.18
2023-02-11T13:18:15.465Z,15.95
2023-02-11T13:20:47.610Z,15.13
2023-02-11T13:23:20.868Z,16.08
2023-02-11T13:25:54.695Z,15.65
2023-02-11T13:28:27.525Z,15.35
2023-02-11T13:31:02.654Z,15.02
2023-02-11T13:33:39.476Z,15.63
2023-02-11T13:36:18.538Z,14.90
2023-02-11T13:39:01.439Z,15.43
2023-02-11T13:41:32.660Z,14.02
2023-02-11T13:44:02.449Z,14.57
2023-02-11T13:46:31.821Z,14.98
2023-02-11T13:49:00.390Z,14.23
2023-02-11T13:51:36.995Z,13.88
2023-02-11T13:54:06.350Z,14.88
2023-02-11T13:56:36.870Z,14.02
2023-02-11T13:59:06.213Z,14.63
2023-02-11T14:01:42.099Z,14.30
2023-02-11T14:04:42.027Z,14.35
2023-02-11T14:07:44.639Z,14.48
2023-02-11T14:10:39.910Z,13.82
2023-02-11T14:13:21.258Z,13.45
2023-02-11T14:15:49.526Z,14.38
2023-02-11T14:18:37.878Z,14.43
2023-02-11T14:21:13.005Z,13.98
2023-02-11T14:23:41.971Z,13.13
2023-02-11T14:26:28.986Z,13.88
2023-02-11T14:29:02.508Z,13.82
2023-02-11T14:31:36.188Z,13.52
2023-02-11T14:34:09.580Z,12.90
2023-02-11T14:36:56.280Z,13.23
2023-02-11T14:39:31.093Z,12.38
2023-02-11T14:41:59.592Z,13.50
2023-02-11T14:44:31.145Z,12.23
2023-02-11T14:46:59.819Z,13.52
2023-02-11T14:49:30.311Z,15.52
2023-02-11T14:52:02.001Z,15.90
2023-02-11T14:54:30.689Z,17.23
2023-02-11T14:57:09.111Z,12.40
2023-02-11T14:59:38.992Z,12.75
2023-02-11T15:02:21.321Z,12.13
2023-02-11T15:04:49.602Z,12.63
2023-02-11T15:07:18.744Z,12.48
2023-02-11T15:09:48.731Z,11.52
2023-02-11T15:12:20.088Z,12.98
2023-02-11T15:14:50.522Z,12.65
2023-02-11T15:17:20.936Z,12.27
2023-02-11T15:19:50.865Z,12.07
2023-02-11T15:22:21.293Z,12.88
2023-02-11T15:24:59.587Z,12.05
2023-02-11T15:27:27.840Z,11.10
2023-02-11T15:29:57.442Z,10.60
2023-02-11T15:32:28.592Z,11.95
2023-02-11T15:34:58.398Z,10.68
2023-02-11T15:37:29.541Z,11.38
2023-02-11T15:40:09.949Z,11.82
2023-02-11T15:42:52.240Z,11.25
2023-02-11T15:45:29.522Z,11.95
2023-02-11T15:47:59.462Z,13.32
2023-02-11T15:50:29.323Z,12.80
2023-02-11T15:52:58.569Z,10.30
2023-02-11T15:55:28.404Z,12.20
2023-02-11T15:57:57.771Z,11.00
2023-02-11T16:00:33.043Z,10.40
2023-02-11T16:03:01.503Z,10.77
2023-02-11T16:05:31.609Z,11.55
2023-02-11T16:08:00.825Z,14.05
2023-02-11T16:10:30.454Z,12.85
2023-02-11T16:13:13.670Z,13.48
2023-02-11T16:15:47.720Z,12.07
2023-02-11T16:18:28.516Z,13.55
2023-02-11T16:21:06.241Z,13.68
2023-02-11T16:23:35.981Z,12.38
2023-02-11T16:26:08.339Z,13.07
2023-02-11T16:28:37.688Z,13.27
2023-02-11T16:31:07.693Z,13.30
2023-02-11T16:33:36.039Z,13.15
2023-02-11T16:36:08.131Z,13.38
2023-02-11T16:38:36.400Z,12.68
2023-02-11T16:41:06.016Z,15.35
2023-02-11T16:43:34.407Z,13.88
2023-02-11T16:46:02.666Z,12.82
2023-02-11T16:48:32.662Z,13.30
2023-02-11T16:51:00.962Z,14.15
2023-02-11T16:53:29.287Z,14.25
2023-02-11T16:55:57.882Z,19.90
2023-02-11T16:58:26.263Z,18.50
2023-02-11T17:00:58.937Z,19.20
2023-02-11T17:03:30.038Z,17.02
2023-02-11T17:06:02.803Z,23.48
2023-02-11T17:08:31.430Z,21.85
2023-02-11T17:10:59.727Z,19.08
2023-02-11T17:13:28.048Z,20.05
2023-02-11T17:15:56.383Z,15.95
2023-02-11T17:18:24.691Z,15.13
2023-02-11T17:20:52.979Z,15.32
2023-02-11T17:23:22.593Z,14.98
2023-02-11T17:25:56.495Z,15.27
2023-02-11T17:28:25.313Z,14.18
2023-02-11T17:30:53.766Z,13.93
2023-02-11T17:33:24.554Z,16.08
2023-02-11T17:35:53.191Z,14.52
2023-02-11T17:38:23.007Z,15.90
2023-02-11T17:40:58.522Z,14.85
2023-02-11T17:43:26.952Z,19.60
2023-02-11T17:45:55.394Z,16.25
2023-02-11T17:48:23.778Z,16.27
2023-02-11T17:50:52.086Z,15.90
2023-02-11T17:53:20.370Z,16.75
2023-02-11T17:55:50.692Z,17.10
2023-02-11T17:58:19.117Z,15.48
2023-02-11T18:00:55.728Z,16.17
2023-02-11T18:03:26.213Z,17.58
2023-02-11T18:05:55.302Z,14.85
2023-02-11T18:08:23.731Z,15.02
2023-02-11T18:10:53.396Z,14.73
2023-02-11T18:13:22.045Z,14.77
2023-02-11T18:15:50.579Z,16.75
2023-02-11T18:18:19.262Z,15.57
2023-02-11T18:20:48.062Z,14.35
2023-02-11T18:23:16.328Z,14.70
2023-02-11T18:25:44.840Z,16.35
2023-02-11T18:28:14.474Z,14.68
2023-02-11T18:30:42.859Z,14.13
2023-02-11T18:33:14.109Z,15.40
2023-02-11T18:35:43.336Z,13.25
2023-02-11T18:38:11.609Z,14.68
2023-02-11T18:40:40.820Z,13.27
2023-02-11T18:43:09.465Z,14.30
2023-02-11T18:45:39.305Z,15.05
2023-02-11T18:48:07.632Z,15.52
2023-02-11T18:50:35.887Z,19.85
2023-02-11T18:53:04.247Z,16.63
2023-02-11T18:55:32.537Z,14.43
2023-02-11T18:58:00.849Z,14.73
2023-02-11T19:00:31.158Z,15.45
2023-02-11T19:03:01.111Z,14.57
2023-02-11T19:05:33.228Z,14.93
2023-02-11T19:08:02.283Z,14.73
2023-02-11T19:10:30.612Z,14.07
2023-02-11T19:12:59.598Z,15.85
2023-02-11T19:15:27.957Z,15.68
2023-02-11T19:17:56.277Z,15.90
2023-02-11T19:20:25.855Z,17.27
2023-02-11T19:22:54.142Z,14.75
2023-02-11T19:25:22.388Z,14.90
2023-02-11T19:27:50.667Z,15.23
2023-02-11T19:30:19.126Z,16.15
2023-02-11T19:32:52.305Z,15.50
2023-02-11T19:35:20.645Z,16.77
2023-02-11T19:37:50.294Z,17.30
2023-02-11T19:40:19.131Z,16.15
2023-02-11T19:42:47.416Z,15.98
2023-02-11T19:45:15.659Z,16.40
2023-02-11T19:47:44.285Z,18.77
2023-02-11T19:50:13.271Z,16.17
2023-02-11T19:52:41.882Z,18.85
2023-02-11T19:55:11.559Z,16.30
2023-02-11T19:57:39.931Z,16.95
2023-02-11T20:00:10.938Z,16.70
2023-02-11T20:02:43.360Z,15.35
2023-02-11T20:05:11.706Z,18.73
2023-02-11T20:07:39.964Z,16.75
2023-02-11T20:10:09.181Z,18.83
2023-02-11T20:12:39.257Z,27.77
2023-02-11T20:15:07.772Z,17.90
2023-02-11T20:17:36.075Z,16.17
2023-02-11T20:20:04.455Z,15.02
2023-02-11T20:22:32.777Z,15.68
2023-02-11T20:25:01.095Z,16.13
2023-02-11T20:27:32.027Z,16.20
2023-02-11T20:30:01.851Z,15.85
2023-02-11T20:32:32.805Z,15.68
2023-02-11T20:35:01.186Z,14.70
2023-02-11T20:37:29.696Z,14.85
2023-02-11T20:39:58.735Z,14.57
2023-02-11T20:42:27.336Z,17.63
2023-02-11T20:44:55.663Z,18.55
2023-02-11T20:47:25.270Z,16.65
2023-02-11T20:49:55.838Z,15.88
2023-02-11T20:52:24.174Z,14.93
2023-02-11T20:54:52.920Z,15.65
2023-02-11T20:57:21.236Z,16.35
2023-02-11T20:59:49.500Z,15.75
2023-02-11T21:02:17.862Z,16.80
2023-02-11T21:04:47.519Z,16.85
2023-02-11T21:07:15.989Z,15.27
2023-02-11T21:09:44.235Z,15.77
2023-02-11T21:12:13.042Z,15.10
2023-02-11T21:14:41.368Z,15.15
2023-02-11T21:17:09.608Z,15.15
2023-02-11T21:19:37.969Z,14.82
2023-02-11T21:22:07.634Z,15.10
2023-02-11T21:24:35.966Z,14.70
2023-02-11T21:27:04.530Z,15.15
2023-02-11T21:29:35.179Z,15.20
2023-02-11T21:32:05.110Z,15.02
2023-02-11T21:34:37.729Z,15.20
2023-02-11T21:37:07.632Z,14.98
2023-02-11T21:39:35.954Z,14.65
2023-02-11T21:42:04.237Z,15.65
2023-02-11T21:44:32.543Z,15.38
2023-02-11T21:47:00.980Z,15.82
2023-02-11T21:49:29.900Z,16.42
2023-02-11T21:51:58.201Z,15.70
2023-02-11T21:54:31.943Z,15.38
2023-02-11T21:57:02.949Z,16.08
2023-02-11T21:59:32.551Z,14.50
2023-02-11T22:02:01.211Z,14.63
2023-02-11T22:04:29.817Z,16.17
2023-02-11T22:06:58.650Z,15.65
2023-02-11T22:09:28.362Z,14.77
2023-02-11T22:11:56.958Z,15.60
2023-02-11T22:14:25.209Z,16.50
2023-02-11T22:16:53.543Z,15.88
2023-02-11T22:19:23.490Z,15.25
2023-02-11T22:21:51.805Z,15.35
2023-02-11T22:24:20.032Z,15.20
2023-02-11T22:26:49.667Z,20.75
2023-02-11T22:29:17.979Z,18.73
2023-02-11T22:31:46.284Z,18.90
2023-02-11T22:34:14.632Z,19.13
2023-02-11T22:36:45.368Z,17.98
2023-02-11T22:40:03.618Z,18.33
2023-02-11T22:42:34.341Z,16.05
2023-02-11T22:45:03.142Z,17.15
2023-02-11T22:47:36.355Z,15.95
2023-02-11T22:50:08.505Z,15.55
2023-02-11T22:52:36.940Z,16.52
2023-02-11T22:55:30.434Z,16.50
2023-02-11T22:58:27.139Z,17.13
2023-02-11T23:00:55.900Z,16.80
2023-02-11T23:03:24.348Z,18.13
2023-02-11T23:05:53.465Z,17.30
2023-02-11T23:08:22.437Z,17.20
2023-02-11T23:10:50.981Z,16.58
2023-02-11T23:13:19.367Z,16.00
2023-02-11T23:15:49.136Z,16.40
2023-02-11T23:18:17.580Z,15.27
2023-02-11T23:20:46.031Z,15.70
2023-02-11T23:23:14.368Z,16.17
2023-02-11T23:25:44.707Z,15.50
2023-02-11T23:28:13.443Z,15.82
2023-02-11T23:30:42.278Z,14.23
2023-02-11T23:33:12.271Z,14.85
2023-02-11T23:35:40.629Z,13.70
2023-02-11T23:38:09.079Z,13.85
2023-02-11T23:40:37.517Z,13.73
2023-02-11T23:43:05.828Z,13.80
2023-02-11T23:45:34.090Z,14.27
2023-02-11T23:48:02.563Z,15.00
2023-02-11T23:50:32.505Z,14.68
2023-02-11T23:53:00.864Z,15.57
2023-02-11T23:55:29.295Z,15.02
2023-02-11T23:57:57.584Z,15.25
